sensor_id;sensor_type;location;lat;lon;timestamp;pressure;altitude;pressure_sealevel;temperature;humidity
47726;BME280;33483;48.294;16.388;2022-07-05T00:01:35;99549.78;;;19.44;100.00
47726;BME280;33483;48.294;16.388;2022-07-05T00:04:02;99548.88;;;19.41;100.00
47726;BME280;33483;48.294;16.388;2022-07-05T00:06:31;99537.31;;;19.37;100.00
47726;BME280;33483;48.294;16.388;2022-07-05T00:08:58;99537.03;;;19.33;100.00
47726;BME280;33483;48.294;16.388;2022-07-05T00:11:25;99537.28;;;19.28;100.00
47726;BME280;33483;48.294;16.388;2022-07-05T00:13:53;99534.00;;;19.22;100.00
47726;BME280;33483;48.294;16.388;2022-07-05T00:16:20;99537.06;;;19.16;100.00
47726;BME280;33483;48.294;16.388;2022-07-05T00:18:47;99526.88;;;19.11;100.00
47726;BME280;33483;48.294;16.388;2022-07-05T00:21:14;99530.09;;;19.07;100.00
47726;BME280;33483;48.294;16.388;2022-07-05T00:23:43;99519.31;;;19.04;100.00
47726;BME280;33483;48.294;16.388;2022-07-05T00:26:13;99517.84;;;19.03;100.00
47726;BME280;33483;48.294;16.388;2022-07-05T00:28:45;99519.63;;;19.08;100.00
47726;BME280;33483;48.294;16.388;2022-07-05T00:31:12;99514.72;;;18.99;100.00
47726;BME280;33483;48.294;16.388;2022-07-05T00:33:39;99501.38;;;18.90;100.00
47726;BME280;33483;48.294;16.388;2022-07-05T00:36:09;99507.41;;;18.86;100.00
47726;BME280;33483;48.294;16.388;2022-07-05T00:38:37;99503.25;;;18.78;100.00
47726;BME280;33483;48.294;16.388;2022-07-05T00:41:06;99508.59;;;18.74;100.00
47726;BME280;33483;48.294;16.388;2022-07-05T00:43:33;99508.69;;;18.66;100.00
47726;BME280;33483;48.294;16.388;2022-07-05T00:46:01;99513.56;;;18.66;100.00
47726;BME280;33483;48.294;16.388;2022-07-05T00:48:30;99511.91;;;18.63;100.00
47726;BME280;33483;48.294;16.388;2022-07-05T00:51:01;99520.66;;;18.67;100.00
47726;BME280;33483;48.294;16.388;2022-07-05T00:53:28;99519.16;;;18.66;100.00
47726;BME280;33483;48.294;16.388;2022-07-05T00:55:56;99516.94;;;18.64;100.00
47726;BME280;33483;48.294;16.388;2022-07-05T00:58:26;99523.03;;;18.70;100.00
47726;BME280;33483;48.294;16.388;2022-07-05T01:00:54;99529.88;;;18.77;100.00
47726;BME280;33483;48.294;16.388;2022-07-05T01:03:21;99528.69;;;18.80;100.00
47726;BME280;33483;48.294;16.388;2022-07-05T01:05:49;99524.41;;;18.79;100.00
47726;BME280;33483;48.294;16.388;2022-07-05T01:08:16;99531.97;;;18.86;100.00
47726;BME280;33483;48.294;16.388;2022-07-05T01:10:43;99529.31;;;18.88;100.00
47726;BME280;33483;48.294;16.388;2022-07-05T01:13:11;99528.31;;;18.93;100.00
47726;BME280;33483;48.294;16.388;2022-07-05T01:15:38;99525.34;;;18.91;100.00
47726;BME280;33483;48.294;16.388;2022-07-05T01:18:05;99526.22;;;18.93;100.00
47726;BME280;33483;48.294;16.388;2022-07-05T01:20:33;99531.41;;;18.97;100.00
47726;BME280;33483;48.294;16.388;2022-07-05T01:23:01;99528.59;;;18.97;100.00
47726;BME280;33483;48.294;16.388;2022-07-05T01:25:29;99520.16;;;18.97;100.00
47726;BME280;33483;48.294;16.388;2022-07-05T01:28:00;99519.56;;;18.89;100.00
47726;BME280;33483;48.294;16.388;2022-07-05T01:30:31;99528.31;;;18.93;100.00
47726;BME280;33483;48.294;16.388;2022-07-05T01:33:01;99530.84;;;18.98;100.00
47726;BME280;33483;48.294;16.388;2022-07-05T01:35:30;99535.72;;;18.98;100.00
47726;BME280;33483;48.294;16.388;2022-07-05T01:37:58;99527.28;;;18.98;100.00
47726;BME280;33483;48.294;16.388;2022-07-05T01:40:25;99519.88;;;18.93;100.00
47726;BME280;33483;48.294;16.388;2022-07-05T01:42:53;99515.41;;;18.90;100.00
47726;BME280;33483;48.294;16.388;2022-07-05T01:45:22;99514.38;;;18.85;100.00
47726;BME280;33483;48.294;16.388;2022-07-05T01:48:16;99509.03;;;18.80;100.00
47726;BME280;33483;48.294;16.388;2022-07-05T01:50:48;99510.03;;;18.75;100.00
47726;BME280;33483;48.294;16.388;2022-07-05T01:53:21;99511.97;;;18.72;100.00
47726;BME280;33483;48.294;16.388;2022-07-05T01:55:51;99506.78;;;18.69;100.00
47726;BME280;33483;48.294;16.388;2022-07-05T01:58:18;99511.50;;;18.66;100.00
47726;BME280;33483;48.294;16.388;2022-07-05T02:00:47;99504.25;;;18.63;100.00
47726;BME280;33483;48.294;16.388;2022-07-05T02:03:15;99503.94;;;18.59;100.00
47726;BME280;33483;48.294;16.388;2022-07-05T02:06:00;99501.53;;;18.56;100.00
47726;BME280;33483;48.294;16.388;2022-07-05T02:08:31;99509.66;;;18.52;100.00
47726;BME280;33483;48.294;16.388;2022-07-05T02:10:58;99510.81;;;18.49;100.00
47726;BME280;33483;48.294;16.388;2022-07-05T02:13:25;99520.88;;;18.52;100.00
47726;BME280;33483;48.294;16.388;2022-07-05T02:15:52;99520.72;;;18.50;100.00
47726;BME280;33483;48.294;16.388;2022-07-05T02:18:19;99532.84;;;18.52;100.00
47726;BME280;33483;48.294;16.388;2022-07-05T02:20:46;99530.63;;;18.51;100.00
47726;BME280;33483;48.294;16.388;2022-07-05T02:23:13;99544.66;;;18.51;100.00
47726;BME280;33483;48.294;16.388;2022-07-05T02:25:41;99546.28;;;18.54;100.00
47726;BME280;33483;48.294;16.388;2022-07-05T02:28:13;99548.34;;;18.53;100.00
47726;BME280;33483;48.294;16.388;2022-07-05T02:30:43;99556.06;;;18.53;100.00
47726;BME280;33483;48.294;16.388;2022-07-05T02:33:13;99568.59;;;18.52;100.00
47726;BME280;33483;48.294;16.388;2022-07-05T02:35:40;99564.31;;;18.51;100.00
47726;BME280;33483;48.294;16.388;2022-07-05T02:38:08;99562.66;;;18.48;100.00
47726;BME280;33483;48.294;16.388;2022-07-05T02:40:35;99575.28;;;18.39;100.00
47726;BME280;33483;48.294;16.388;2022-07-05T02:43:03;99571.75;;;18.39;100.00
47726;BME280;33483;48.294;16.388;2022-07-05T02:45:30;99577.59;;;18.33;100.00
47726;BME280;33483;48.294;16.388;2022-07-05T02:47:59;99576.69;;;18.31;100.00
47726;BME280;33483;48.294;16.388;2022-07-05T02:50:29;99570.78;;;18.27;100.00
47726;BME280;33483;48.294;16.388;2022-07-05T02:52:57;99578.44;;;18.26;100.00
47726;BME280;33483;48.294;16.388;2022-07-05T02:55:24;99569.84;;;18.24;100.00
47726;BME280;33483;48.294;16.388;2022-07-05T02:57:52;99573.25;;;18.23;100.00
47726;BME280;33483;48.294;16.388;2022-07-05T03:00:19;99570.59;;;18.25;100.00
47726;BME280;33483;48.294;16.388;2022-07-05T03:02:49;99575.31;;;18.22;100.00
47726;BME280;33483;48.294;16.388;2022-07-05T03:05:16;99569.09;;;18.24;100.00
47726;BME280;33483;48.294;16.388;2022-07-05T03:07:52;99567.63;;;18.23;100.00
47726;BME280;33483;48.294;16.388;2022-07-05T03:10:20;99565.75;;;18.25;100.00
47726;BME280;33483;48.294;16.388;2022-07-05T03:12:49;99575.22;;;18.30;100.00
47726;BME280;33483;48.294;16.388;2022-07-05T03:15:17;99573.16;;;18.30;100.00
47726;BME280;33483;48.294;16.388;2022-07-05T03:17:48;99568.44;;;18.33;100.00
47726;BME280;33483;48.294;16.388;2022-07-05T03:20:18;99582.63;;;18.35;100.00
47726;BME280;33483;48.294;16.388;2022-07-05T03:22:48;99579.25;;;18.36;100.00
47726;BME280;33483;48.294;16.388;2022-07-05T03:25:18;99586.28;;;18.45;100.00
47726;BME280;33483;48.294;16.388;2022-07-05T03:27:47;99582.94;;;18.56;100.00
47726;BME280;33483;48.294;16.388;2022-07-05T03:30:14;99582.72;;;18.71;100.00
47726;BME280;33483;48.294;16.388;2022-07-05T03:32:42;99580.56;;;18.79;100.00
47726;BME280;33483;48.294;16.388;2022-07-05T03:35:09;99583.72;;;18.92;100.00
47726;BME280;33483;48.294;16.388;2022-07-05T03:37:36;99594.88;;;19.09;100.00
47726;BME280;33483;48.294;16.388;2022-07-05T03:40:05;99592.72;;;19.27;100.00
47726;BME280;33483;48.294;16.388;2022-07-05T03:42:33;99594.59;;;19.42;100.00
47726;BME280;33483;48.294;16.388;2022-07-05T03:45:03;99591.06;;;19.51;100.00
47726;BME280;33483;48.294;16.388;2022-07-05T03:47:34;99606.03;;;19.63;100.00
47726;BME280;33483;48.294;16.388;2022-07-05T03:50:01;99604.69;;;19.64;100.00
47726;BME280;33483;48.294;16.388;2022-07-05T03:52:28;99595.38;;;19.71;100.00
47726;BME280;33483;48.294;16.388;2022-07-05T03:54:57;99595.69;;;19.75;100.00
47726;BME280;33483;48.294;16.388;2022-07-05T03:57:24;99596.72;;;19.79;100.00
47726;BME280;33483;48.294;16.388;2022-07-05T03:59:51;99595.53;;;19.82;100.00
47726;BME280;33483;48.294;16.388;2022-07-05T04:02:19;99593.63;;;19.94;100.00
47726;BME280;33483;48.294;16.388;2022-07-05T04:04:47;99595.09;;;19.95;100.00
47726;BME280;33483;48.294;16.388;2022-07-05T04:07:14;99601.03;;;19.99;100.00
47726;BME280;33483;48.294;16.388;2022-07-05T04:09:42;99593.47;;;20.02;100.00
47726;BME280;33483;48.294;16.388;2022-07-05T04:12:10;99601.47;;;20.05;100.00
47726;BME280;33483;48.294;16.388;2022-07-05T04:14:40;99598.81;;;20.07;100.00
47726;BME280;33483;48.294;16.388;2022-07-05T04:17:07;99592.44;;;20.07;100.00
47726;BME280;33483;48.294;16.388;2022-07-05T04:19:35;99601.63;;;20.07;100.00
47726;BME280;33483;48.294;16.388;2022-07-05T04:22:03;99593.19;;;20.07;100.00
47726;BME280;33483;48.294;16.388;2022-07-05T04:24:31;99593.47;;;20.11;100.00
47726;BME280;33483;48.294;16.388;2022-07-05T04:27:19;99598.50;;;20.13;100.00
47726;BME280;33483;48.294;16.388;2022-07-05T04:29:47;99603.41;;;20.12;100.00
47726;BME280;33483;48.294;16.388;2022-07-05T04:32:14;99594.22;;;20.12;100.00
47726;BME280;33483;48.294;16.388;2022-07-05T04:34:43;99601.66;;;20.17;100.00
47726;BME280;33483;48.294;16.388;2022-07-05T04:37:10;99592.63;;;20.19;100.00
47726;BME280;33483;48.294;16.388;2022-07-05T04:39:37;99591.13;;;20.17;100.00
47726;BME280;33483;48.294;16.388;2022-07-05T04:42:08;99588.63;;;20.22;100.00
47726;BME280;33483;48.294;16.388;2022-07-05T04:44:38;99595.59;;;20.21;100.00
47726;BME280;33483;48.294;16.388;2022-07-05T04:47:06;99600.03;;;20.24;100.00
47726;BME280;33483;48.294;16.388;2022-07-05T04:49:33;99597.34;;;20.26;100.00
47726;BME280;33483;48.294;16.388;2022-07-05T04:52:01;99599.13;;;20.31;100.00
47726;BME280;33483;48.294;16.388;2022-07-05T04:54:30;99605.03;;;20.35;100.00
47726;BME280;33483;48.294;16.388;2022-07-05T04:56:57;99606.53;;;20.36;100.00
47726;BME280;33483;48.294;16.388;2022-07-05T04:59:24;99608.59;;;20.35;100.00
47726;BME280;33483;48.294;16.388;2022-07-05T05:01:52;99613.63;;;20.37;100.00
47726;BME280;33483;48.294;16.388;2022-07-05T05:04:19;99615.28;;;20.40;100.00
47726;BME280;33483;48.294;16.388;2022-07-05T05:06:46;99605.03;;;20.44;100.00
47726;BME280;33483;48.294;16.388;2022-07-05T05:09:13;99617.19;;;20.47;100.00
47726;BME280;33483;48.294;16.388;2022-07-05T05:11:43;99620.44;;;20.53;100.00
47726;BME280;33483;48.294;16.388;2022-07-05T05:14:10;99619.53;;;20.60;100.00
47726;BME280;33483;48.294;16.388;2022-07-05T05:16:40;99613.44;;;20.63;100.00
47726;BME280;33483;48.294;16.388;2022-07-05T05:19:08;99619.06;;;20.73;100.00
47726;BME280;33483;48.294;16.388;2022-07-05T05:21:36;99619.34;;;20.77;100.00
47726;BME280;33483;48.294;16.388;2022-07-05T05:24:04;99609.41;;;20.76;100.00
47726;BME280;33483;48.294;16.388;2022-07-05T05:26:34;99619.50;;;20.79;100.00
47726;BME280;33483;48.294;16.388;2022-07-05T05:29:05;99621.69;;;20.80;100.00
47726;BME280;33483;48.294;16.388;2022-07-05T05:31:35;99618.75;;;20.78;100.00
47726;BME280;33483;48.294;16.388;2022-07-05T05:34:03;99619.50;;;20.79;100.00
47726;BME280;33483;48.294;16.388;2022-07-05T05:36:30;99606.91;;;20.80;100.00
47726;BME280;33483;48.294;16.388;2022-07-05T05:38:57;99613.41;;;20.82;100.00
47726;BME280;33483;48.294;16.388;2022-07-05T05:41:25;99616.06;;;20.80;100.00
47726;BME280;33483;48.294;16.388;2022-07-05T05:43:52;99612.81;;;20.84;100.00
47726;BME280;33483;48.294;16.388;2022-07-05T05:46:19;99622.00;;;20.84;100.00
47726;BME280;33483;48.294;16.388;2022-07-05T05:48:48;99618.59;;;20.86;100.00
47726;BME280;33483;48.294;16.388;2022-07-05T05:51:16;99618.03;;;20.78;100.00
47726;BME280;33483;48.294;16.388;2022-07-05T05:53:45;99612.94;;;20.86;100.00
47726;BME280;33483;48.294;16.388;2022-07-05T05:56:13;99619.19;;;20.75;100.00
47726;BME280;33483;48.294;16.388;2022-07-05T05:58:40;99623.34;;;20.74;100.00
47726;BME280;33483;48.294;16.388;2022-07-05T06:01:12;99616.25;;;20.73;100.00
47726;BME280;33483;48.294;16.388;2022-07-05T06:03:39;99632.09;;;20.78;100.00
47726;BME280;33483;48.294;16.388;2022-07-05T06:06:07;99624.97;;;20.77;100.00
47726;BME280;33483;48.294;16.388;2022-07-05T06:08:34;99624.38;;;20.78;100.00
47726;BME280;33483;48.294;16.388;2022-07-05T06:11:01;99633.56;;;20.79;100.00
47726;BME280;33483;48.294;16.388;2022-07-05T06:13:31;99633.56;;;20.79;100.00
47726;BME280;33483;48.294;16.388;2022-07-05T06:16:01;99639.22;;;20.79;100.00
47726;BME280;33483;48.294;16.388;2022-07-05T06:18:28;99633.72;;;20.81;100.00
47726;BME280;33483;48.294;16.388;2022-07-05T06:20:55;99638.75;;;20.82;100.00
47726;BME280;33483;48.294;16.388;2022-07-05T06:23:25;99648.66;;;20.93;100.00
47726;BME280;33483;48.294;16.388;2022-07-05T06:25:52;99646.13;;;20.97;100.00
47726;BME280;33483;48.294;16.388;2022-07-05T06:28:19;99639.47;;;21.02;100.00
47726;BME280;33483;48.294;16.388;2022-07-05T06:30:47;99640.50;;;21.06;100.00
47726;BME280;33483;48.294;16.388;2022-07-05T06:33:14;99645.53;;;21.08;100.00
47726;BME280;33483;48.294;16.388;2022-07-05T06:35:41;99647.16;;;21.11;100.00
47726;BME280;33483;48.294;16.388;2022-07-05T06:38:09;99639.25;;;21.19;100.00
47726;BME280;33483;48.294;16.388;2022-07-05T06:40:41;99643.44;;;21.18;100.00
47726;BME280;33483;48.294;16.388;2022-07-05T06:43:13;99635.28;;;21.12;100.00
47726;BME280;33483;48.294;16.388;2022-07-05T06:46:01;99643.69;;;21.22;100.00
47726;BME280;33483;48.294;16.388;2022-07-05T06:48:31;99641.00;;;21.24;100.00
47726;BME280;33483;48.294;16.388;2022-07-05T06:50:58;99642.00;;;21.38;100.00
47726;BME280;33483;48.294;16.388;2022-07-05T06:53:25;99642.56;;;21.46;100.00
47726;BME280;33483;48.294;16.388;2022-07-05T06:55:52;99641.34;;;21.49;100.00
47726;BME280;33483;48.294;16.388;2022-07-05T06:58:23;99644.44;;;21.53;100.00
47726;BME280;33483;48.294;16.388;2022-07-05T07:00:50;99642.94;;;21.62;100.00
47726;BME280;33483;48.294;16.388;2022-07-05T07:03:40;99641.13;;;21.66;100.00
47726;BME280;33483;48.294;16.388;2022-07-05T07:06:32;99636.22;;;21.67;100.00
47726;BME280;33483;48.294;16.388;2022-07-05T07:08:59;99636.31;;;21.78;100.00
47726;BME280;33483;48.294;16.388;2022-07-05T07:11:45;99639.66;;;21.86;100.00
47726;BME280;33483;48.294;16.388;2022-07-05T07:14:16;99643.19;;;21.96;100.00
47726;BME280;33483;48.294;16.388;2022-07-05T07:16:43;99631.75;;;22.15;100.00
47726;BME280;33483;48.294;16.388;2022-07-05T07:19:11;99629.16;;;22.19;100.00
47726;BME280;33483;48.294;16.388;2022-07-05T07:21:42;99620.84;;;22.21;100.00
47726;BME280;33483;48.294;16.388;2022-07-05T07:24:12;99628.59;;;22.21;100.00
47726;BME280;33483;48.294;16.388;2022-07-05T07:26:40;99634.41;;;22.34;100.00
47726;BME280;33483;48.294;16.388;2022-07-05T07:29:25;99638.22;;;22.39;100.00
47726;BME280;33483;48.294;16.388;2022-07-05T07:31:56;99635.56;;;22.53;100.00
47726;BME280;33483;48.294;16.388;2022-07-05T07:34:23;99631.09;;;22.59;100.00
47726;BME280;33483;48.294;16.388;2022-07-05T07:36:57;99623.34;;;22.60;100.00
47726;BME280;33483;48.294;16.388;2022-07-05T07:39:25;99637.50;;;22.71;100.00
47726;BME280;33483;48.294;16.388;2022-07-05T07:41:52;99633.13;;;22.91;100.00
47726;BME280;33483;48.294;16.388;2022-07-05T07:44:19;99632.16;;;22.98;100.00
47726;BME280;33483;48.294;16.388;2022-07-05T07:46:49;99628.59;;;23.21;100.00
47726;BME280;33483;48.294;16.388;2022-07-05T07:49:17;99637.84;;;23.33;100.00
47726;BME280;33483;48.294;16.388;2022-07-05T07:51:45;99644.72;;;23.18;100.00
47726;BME280;33483;48.294;16.388;2022-07-05T07:54:12;99642.75;;;23.21;100.00
47726;BME280;33483;48.294;16.388;2022-07-05T07:56:40;99638.81;;;23.26;100.00
47726;BME280;33483;48.294;16.388;2022-07-05T07:59:08;99643.09;;;23.15;100.00
47726;BME280;33483;48.294;16.388;2022-07-05T08:01:38;99643.38;;;23.08;100.00
47726;BME280;33483;48.294;16.388;2022-07-05T08:04:12;99643.94;;;22.95;100.00
47726;BME280;33483;48.294;16.388;2022-07-05T08:06:40;99645.94;;;23.04;100.00
47726;BME280;33483;48.294;16.388;2022-07-05T08:09:08;99647.16;;;23.01;100.00
47726;BME280;33483;48.294;16.388;2022-07-05T08:11:41;99653.44;;;22.99;100.00
47726;BME280;33483;48.294;16.388;2022-07-05T08:14:09;99650.63;;;23.11;100.00
47726;BME280;33483;48.294;16.388;2022-07-05T08:16:36;99648.53;;;23.11;100.00
47726;BME280;33483;48.294;16.388;2022-07-05T08:19:04;99658.81;;;22.95;100.00
47726;BME280;33483;48.294;16.388;2022-07-05T08:21:49;99666.31;;;22.91;100.00
47726;BME280;33483;48.294;16.388;2022-07-05T08:24:17;99666.81;;;22.87;100.00
47726;BME280;33483;48.294;16.388;2022-07-05T08:26:44;99668.34;;;22.79;100.00
47726;BME280;33483;48.294;16.388;2022-07-05T08:29:12;99663.56;;;22.70;100.00
47726;BME280;33483;48.294;16.388;2022-07-05T08:31:50;99663.56;;;22.70;100.00
47726;BME280;33483;48.294;16.388;2022-07-05T08:34:19;99671.19;;;22.79;100.00
47726;BME280;33483;48.294;16.388;2022-07-05T08:36:46;99681.50;;;22.74;100.00
47726;BME280;33483;48.294;16.388;2022-07-05T08:39:15;99686.78;;;22.68;100.00
47726;BME280;33483;48.294;16.388;2022-07-05T08:41:48;99672.19;;;22.51;100.00
47726;BME280;33483;48.294;16.388;2022-07-05T08:44:20;99686.19;;;22.27;100.00
47726;BME280;33483;48.294;16.388;2022-07-05T08:46:50;99691.97;;;22.29;100.00
47726;BME280;33483;48.294;16.388;2022-07-05T08:49:26;99690.56;;;22.40;100.00
47726;BME280;33483;48.294;16.388;2022-07-05T08:51:55;99691.38;;;22.31;100.00
47726;BME280;33483;48.294;16.388;2022-07-05T08:54:23;99694.94;;;22.10;100.00
47726;BME280;33483;48.294;16.388;2022-07-05T08:56:52;99700.63;;;22.22;100.00
47726;BME280;33483;48.294;16.388;2022-07-05T08:59:39;99694.66;;;22.27;100.00
47726;BME280;33483;48.294;16.388;2022-07-05T09:02:10;99682.69;;;22.39;100.00
47726;BME280;33483;48.294;16.388;2022-07-05T09:04:42;99682.56;;;22.37;100.00
47726;BME280;33483;48.294;16.388;2022-07-05T09:07:16;99688.53;;;22.31;100.00
47726;BME280;33483;48.294;16.388;2022-07-05T09:09:46;99690.63;;;22.30;100.00
47726;BME280;33483;48.294;16.388;2022-07-05T09:12:15;99695.03;;;22.33;100.00
47726;BME280;33483;48.294;16.388;2022-07-05T09:14:49;99706.09;;;22.29;100.00
47726;BME280;33483;48.294;16.388;2022-07-05T09:17:17;99692.84;;;22.32;100.00
47726;BME280;33483;48.294;16.388;2022-07-05T09:19:51;99700.44;;;22.08;100.00
47726;BME280;33483;48.294;16.388;2022-07-05T09:22:52;99702.50;;;21.87;100.00
47726;BME280;33483;48.294;16.388;2022-07-05T09:25:24;99703.38;;;21.89;100.00
47726;BME280;33483;48.294;16.388;2022-07-05T09:28:04;99698.81;;;21.84;100.00
47726;BME280;33483;48.294;16.388;2022-07-05T09:30:36;99700.13;;;21.53;100.00
47726;BME280;33483;48.294;16.388;2022-07-05T09:33:14;99708.91;;;21.47;100.00
47726;BME280;33483;48.294;16.388;2022-07-05T09:35:54;99710.44;;;21.29;100.00
47726;BME280;33483;48.294;16.388;2022-07-05T09:38:28;99712.00;;;21.11;100.00
47726;BME280;33483;48.294;16.388;2022-07-05T09:40:59;99715.97;;;21.08;100.00
47726;BME280;33483;48.294;16.388;2022-07-05T09:43:29;99723.56;;;21.05;100.00
47726;BME280;33483;48.294;16.388;2022-07-05T09:48:27;99717.31;;;21.16;100.00
47726;BME280;33483;48.294;16.388;2022-07-05T09:51:11;99713.09;;;21.27;100.00
47726;BME280;33483;48.294;16.388;2022-07-05T09:54:02;99722.16;;;21.35;100.00
47726;BME280;33483;48.294;16.388;2022-07-05T09:56:43;99723.31;;;21.42;100.00
47726;BME280;33483;48.294;16.388;2022-07-05T09:59:13;99726.72;;;21.40;100.00
47726;BME280;33483;48.294;16.388;2022-07-05T10:01:41;99718.97;;;21.50;100.00
47726;BME280;33483;48.294;16.388;2022-07-05T10:04:08;99718.59;;;21.35;100.00
47726;BME280;33483;48.294;16.388;2022-07-05T10:06:38;99715.16;;;21.36;100.00
47726;BME280;33483;48.294;16.388;2022-07-05T10:09:08;99717.50;;;21.49;100.00
47726;BME280;33483;48.294;16.388;2022-07-05T10:11:39;99718.41;;;21.42;100.00
47726;BME280;33483;48.294;16.388;2022-07-05T10:14:12;99720.25;;;21.68;100.00
47726;BME280;33483;48.294;16.388;2022-07-05T10:16:45;99721.84;;;21.81;100.00
47726;BME280;33483;48.294;16.388;2022-07-05T10:19:18;99727.25;;;21.98;100.00
47726;BME280;33483;48.294;16.388;2022-07-05T10:21:48;99728.22;;;21.81;100.00
47726;BME280;33483;48.294;16.388;2022-07-05T10:24:37;99723.34;;;21.72;100.00
47726;BME280;33483;48.294;16.388;2022-07-05T10:27:06;99731.81;;;21.72;100.00
47726;BME280;33483;48.294;16.388;2022-07-05T10:29:36;99720.50;;;21.82;100.00
47726;BME280;33483;48.294;16.388;2022-07-05T10:32:08;99727.22;;;21.67;100.00
47726;BME280;33483;48.294;16.388;2022-07-05T10:34:37;99725.13;;;21.27;100.00
47726;BME280;33483;48.294;16.388;2022-07-05T10:37:24;99739.97;;;21.28;100.00
47726;BME280;33483;48.294;16.388;2022-07-05T10:39:54;99740.59;;;21.27;100.00
47726;BME280;33483;48.294;16.388;2022-07-05T10:42:23;99742.50;;;21.24;100.00
47726;BME280;33483;48.294;16.388;2022-07-05T10:44:50;99745.97;;;21.13;100.00
47726;BME280;33483;48.294;16.388;2022-07-05T10:47:17;99738.69;;;20.81;100.00
47726;BME280;33483;48.294;16.388;2022-07-05T10:50:02;99740.44;;;20.96;100.00
47726;BME280;33483;48.294;16.388;2022-07-05T10:52:30;99737.81;;;20.79;100.00
47726;BME280;33483;48.294;16.388;2022-07-05T10:57:44;99744.47;;;20.64;100.00
47726;BME280;33483;48.294;16.388;2022-07-05T11:00:11;99743.75;;;20.83;100.00
47726;BME280;33483;48.294;16.388;2022-07-05T11:02:39;99749.50;;;20.94;100.00
47726;BME280;33483;48.294;16.388;2022-07-05T11:05:06;99751.00;;;20.95;100.00
47726;BME280;33483;48.294;16.388;2022-07-05T11:07:58;99751.31;;;21.09;100.00
47726;BME280;33483;48.294;16.388;2022-07-05T11:10:26;99743.56;;;21.19;100.00
47726;BME280;33483;48.294;16.388;2022-07-05T11:12:53;99746.66;;;21.23;100.00
47726;BME280;33483;48.294;16.388;2022-07-05T11:15:22;99744.91;;;21.18;100.00
47726;BME280;33483;48.294;16.388;2022-07-05T11:18:16;99743.53;;;21.29;100.00
47726;BME280;33483;48.294;16.388;2022-07-05T11:20:49;99758.19;;;21.46;100.00
47726;BME280;33483;48.294;16.388;2022-07-05T11:23:26;99754.47;;;21.44;100.00
47726;BME280;33483;48.294;16.388;2022-07-05T11:25:55;99752.41;;;21.35;100.00
47726;BME280;33483;48.294;16.388;2022-07-05T11:28:22;99748.38;;;21.47;100.00
47726;BME280;33483;48.294;16.388;2022-07-05T11:33:40;99755.84;;;21.33;100.00
47726;BME280;33483;48.294;16.388;2022-07-05T11:36:24;99757.47;;;21.36;100.00
47726;BME280;33483;48.294;16.388;2022-07-05T11:41:47;99757.03;;;21.30;100.00
47726;BME280;33483;48.294;16.388;2022-07-05T11:44:15;99765.81;;;21.15;100.00
47726;BME280;33483;48.294;16.388;2022-07-05T11:46:44;99753.06;;;20.95;100.00
47726;BME280;33483;48.294;16.388;2022-07-05T11:49:23;99752.19;;;21.02;100.00
47726;BME280;33483;48.294;16.388;2022-07-05T11:51:58;99750.41;;;20.97;100.00
47726;BME280;33483;48.294;16.388;2022-07-05T11:54:32;99756.34;;;21.10;100.00
47726;BME280;33483;48.294;16.388;2022-07-05T11:57:01;99746.81;;;21.25;100.00
47726;BME280;33483;48.294;16.388;2022-07-05T11:59:28;99741.38;;;21.48;100.00
47726;BME280;33483;48.294;16.388;2022-07-05T12:01:56;99746.19;;;21.76;100.00
47726;BME280;33483;48.294;16.388;2022-07-05T12:04:26;99741.38;;;22.19;100.00
47726;BME280;33483;48.294;16.388;2022-07-05T12:06:54;99744.94;;;22.41;100.00
47726;BME280;33483;48.294;16.388;2022-07-05T12:09:31;99739.84;;;22.49;100.00
47726;BME280;33483;48.294;16.388;2022-07-05T12:12:18;99751.06;;;22.37;100.00
47726;BME280;33483;48.294;16.388;2022-07-05T12:15:04;99736.03;;;21.92;100.00
47726;BME280;33483;48.294;16.388;2022-07-05T12:17:33;99739.75;;;22.37;100.00
47726;BME280;33483;48.294;16.388;2022-07-05T12:20:01;99733.44;;;22.48;100.00
47726;BME280;33483;48.294;16.388;2022-07-05T12:24:59;99736.22;;;22.15;100.00
47726;BME280;33483;48.294;16.388;2022-07-05T12:27:28;99731.75;;;22.33;100.00
47726;BME280;33483;48.294;16.388;2022-07-05T12:30:02;99736.06;;;22.34;100.00
47726;BME280;33483;48.294;16.388;2022-07-05T12:32:31;99743.59;;;22.42;100.00
47726;BME280;33483;48.294;16.388;2022-07-05T12:35:00;99733.53;;;22.39;100.00
47726;BME280;33483;48.294;16.388;2022-07-05T12:37:32;99736.47;;;22.41;100.00
47726;BME280;33483;48.294;16.388;2022-07-05T12:40:06;99721.66;;;22.52;100.00
47726;BME280;33483;48.294;16.388;2022-07-05T12:42:38;99729.63;;;22.65;100.00
47726;BME280;33483;48.294;16.388;2022-07-05T12:45:08;99724.31;;;22.59;100.00
47726;BME280;33483;48.294;16.388;2022-07-05T12:47:47;99728.72;;;22.41;100.00
47726;BME280;33483;48.294;16.388;2022-07-05T12:50:14;99727.66;;;22.25;100.00
47726;BME280;33483;48.294;16.388;2022-07-05T12:53:04;99728.53;;;22.27;100.00
47726;BME280;33483;48.294;16.388;2022-07-05T12:56:11;99725.41;;;22.54;100.00
47726;BME280;33483;48.294;16.388;2022-07-05T12:59:02;99720.06;;;22.70;100.00
47726;BME280;33483;48.294;16.388;2022-07-05T13:01:35;99733.09;;;22.75;100.00
47726;BME280;33483;48.294;16.388;2022-07-05T13:06:53;99719.66;;;22.96;100.00
47726;BME280;33483;48.294;16.388;2022-07-05T13:09:34;99730.75;;;23.04;100.00
47726;BME280;33483;48.294;16.388;2022-07-05T13:12:18;99728.88;;;22.97;100.00
47726;BME280;33483;48.294;16.388;2022-07-05T13:14:53;99719.31;;;23.02;100.00